createdAt,value
2018-11-10T00:01:33.946Z,8.00
2018-11-10T00:04:02.439Z,8.00
2018-11-10T00:06:30.930Z,8.10
2018-11-10T00:08:59.391Z,8.00
2018-11-10T00:11:28.071Z,8.00
2018-11-10T00:13:56.807Z,8.00
2018-11-10T00:16:25.524Z,8.00
2018-11-10T00:18:54.279Z,8.00
2018-11-10T00:21:22.979Z,8.00
2018-11-10T00:23:51.690Z,8.00
2018-11-10T00:26:20.455Z,8.00
2018-11-10T00:28:48.962Z,8.10
2018-11-10T00:31:17.471Z,8.00
2018-11-10T00:33:45.977Z,8.00
2018-11-10T00:36:14.485Z,8.00
2018-11-10T00:38:42.974Z,8.00
2018-11-10T00:41:11.484Z,8.10
2018-11-10T00:43:39.945Z,8.00
2018-11-10T00:46:08.461Z,8.10
2018-11-10T00:48:36.999Z,8.10
2018-11-10T00:51:05.594Z,8.10
2018-11-10T00:53:34.062Z,8.10
2018-11-10T00:56:02.606Z,8.10
2018-11-10T00:58:31.258Z,8.00
2018-11-10T01:01:00.068Z,8.10
2018-11-10T01:03:28.611Z,8.10
2018-11-10T01:05:57.118Z,8.10
2018-11-10T01:08:25.595Z,8.10
2018-11-10T01:10:54.136Z,8.10
2018-11-10T01:13:22.697Z,8.10
2018-11-10T01:15:51.433Z,8.10
2018-11-10T01:18:20.169Z,8.10
2018-11-10T01:20:48.807Z,8.10
2018-11-10T01:23:17.446Z,8.10
2018-11-10T01:25:46.161Z,8.10
2018-11-10T01:28:14.761Z,8.10
2018-11-10T01:30:43.300Z,8.10
2018-11-10T01:33:11.909Z,8.10
2018-11-10T01:35:40.534Z,8.10
2018-11-10T01:38:09.296Z,8.10
2018-11-10T01:40:37.965Z,8.10
2018-11-10T01:43:06.490Z,8.10
2018-11-10T01:45:34.995Z,8.10
2018-11-10T01:48:03.527Z,8.10
2018-11-10T01:50:31.999Z,8.10
2018-11-10T01:53:00.710Z,8.10
2018-11-10T01:55:29.203Z,8.10
2018-11-10T01:57:57.683Z,8.10
2018-11-10T02:00:26.186Z,8.10
2018-11-10T02:02:54.679Z,8.10
2018-11-10T02:05:23.179Z,8.10
2018-11-10T02:07:51.673Z,8.10
2018-11-10T02:10:20.165Z,8.10
2018-11-10T02:12:48.718Z,8.10
2018-11-10T02:15:17.626Z,8.10
2018-11-10T02:17:46.100Z,8.10
2018-11-10T02:20:15.233Z,8.10
2018-11-10T02:22:44.148Z,8.10
2018-11-10T02:25:13.089Z,8.10
2018-11-10T02:27:41.863Z,8.10
2018-11-10T02:30:11.169Z,8.10
2018-11-10T02:32:39.816Z,8.10
2018-11-10T02:35:09.438Z,8.10
2018-11-10T02:37:38.922Z,8.10
2018-11-10T02:40:09.366Z,8.10
2018-11-10T02:42:38.012Z,8.10
2018-11-10T02:45:07.937Z,8.10
2018-11-10T02:47:36.430Z,8.10
2018-11-10T02:50:05.063Z,8.10
2018-11-10T02:52:33.873Z,8.10
2018-11-10T02:55:02.434Z,8.10
2018-11-10T02:57:31.030Z,8.10
2018-11-10T02:59:59.549Z,8.10
2018-11-10T03:02:28.097Z,8.10
2018-11-10T03:04:56.712Z,8.10
2018-11-10T03:07:25.178Z,8.10
2018-11-10T03:09:53.722Z,8.10
2018-11-10T03:12:22.311Z,8.10
2018-11-10T03:14:50.874Z,8.10
2018-11-10T03:17:19.531Z,8.10
2018-11-10T03:19:48.192Z,8.10
2018-11-10T03:22:16.804Z,8.10
2018-11-10T03:24:45.424Z,8.10
2018-11-10T03:27:14.099Z,8.10
2018-11-10T03:29:42.713Z,8.00
2018-11-10T03:32:11.176Z,8.00
2018-11-10T03:34:39.759Z,8.00
2018-11-10T03:37:08.236Z,8.00
2018-11-10T03:39:36.921Z,8.00
2018-11-10T03:42:05.978Z,8.00
2018-11-10T03:44:34.623Z,8.00
2018-11-10T03:47:03.309Z,8.00
2018-11-10T03:49:31.914Z,8.00
2018-11-10T03:52:00.559Z,8.00
2018-11-10T03:54:29.169Z,7.90
2018-11-10T03:56:57.677Z,7.90
2018-11-10T03:59:26.104Z,8.00
2018-11-10T04:01:54.602Z,8.00
2018-11-10T04:04:23.153Z,8.00
2018-11-10T04:06:51.610Z,8.00
2018-11-10T04:09:20.238Z,8.00
2018-11-10T04:11:48.915Z,8.00
2018-11-10T04:14:17.488Z,8.00
2018-11-10T04:16:46.081Z,8.00
2018-11-10T04:19:14.742Z,8.00
2018-11-10T04:21:43.367Z,7.90
2018-11-10T04:24:11.998Z,7.90
2018-11-10T04:26:40.597Z,7.90
2018-11-10T04:29:09.156Z,7.90
2018-11-10T04:31:37.795Z,7.90
2018-11-10T04:34:06.659Z,7.90
2018-11-10T04:36:35.241Z,7.90
2018-11-10T04:39:04.695Z,7.90
2018-11-10T04:41:33.212Z,7.90
2018-11-10T04:44:01.643Z,7.90
2018-11-10T04:46:30.230Z,7.90
2018-11-10T04:48:58.713Z,7.90
2018-11-10T04:51:27.226Z,7.90
2018-11-10T04:53:55.661Z,7.90
2018-11-10T04:56:24.206Z,7.90
2018-11-10T04:58:52.707Z,7.90
2018-11-10T05:01:21.497Z,7.90
2018-11-10T05:03:50.183Z,7.90
2018-11-10T05:06:18.856Z,7.90
2018-11-10T05:08:47.512Z,7.90
2018-11-10T05:11:16.203Z,7.90
2018-11-10T05:13:44.822Z,7.90
2018-11-10T05:16:13.480Z,7.80
2018-11-10T05:18:42.031Z,7.90
2018-11-10T05:21:10.739Z,7.90
2018-11-10T05:23:39.398Z,7.90
2018-11-10T05:26:08.131Z,7.80
2018-11-10T05:28:36.777Z,7.90
2018-11-10T05:31:05.614Z,7.90
2018-11-10T05:33:34.190Z,7.90
2018-11-10T05:36:02.746Z,7.80
2018-11-10T05:38:31.406Z,7.80
2018-11-10T05:41:00.066Z,7.80
2018-11-10T05:43:28.765Z,7.80
2018-11-10T05:45:57.501Z,7.80
2018-11-10T05:48:26.194Z,7.90
2018-11-10T05:50:54.898Z,7.80
2018-11-10T05:53:23.518Z,7.80
2018-11-10T05:55:52.247Z,7.80
2018-11-10T05:58:20.922Z,7.80
2018-11-10T06:00:49.710Z,7.80
2018-11-10T06:03:18.388Z,7.80
2018-11-10T06:05:46.872Z,7.90
2018-11-10T06:08:15.367Z,7.80
2018-11-10T06:10:43.983Z,7.90
2018-11-10T06:13:12.423Z,7.90
2018-11-10T06:15:40.926Z,7.80
2018-11-10T06:18:09.378Z,7.90
2018-11-10T06:20:37.871Z,7.80
2018-11-10T06:23:06.485Z,7.80
2018-11-10T06:25:34.987Z,7.80
2018-11-10T06:28:03.450Z,7.80
2018-11-10T06:30:31.963Z,7.80
2018-11-10T06:33:00.465Z,7.90
2018-11-10T06:35:28.961Z,7.80
2018-11-10T06:37:57.960Z,7.90
2018-11-10T06:40:26.465Z,7.90
2018-11-10T06:42:55.924Z,7.90
2018-11-10T06:45:24.924Z,7.90
2018-11-10T06:47:53.491Z,7.90
2018-11-10T06:50:21.936Z,7.90
2018-11-10T06:52:50.642Z,7.90
2018-11-10T06:55:19.085Z,7.90
2018-11-10T06:57:47.554Z,7.90
2018-11-10T07:00:16.373Z,7.90
2018-11-10T07:02:44.927Z,7.90
2018-11-10T07:05:13.559Z,7.90
2018-11-10T07:07:42.368Z,7.90
2018-11-10T07:10:11.010Z,8.00
2018-11-10T07:12:39.429Z,8.00
2018-11-10T07:15:08.680Z,8.00
2018-11-10T07:17:37.243Z,8.00
2018-11-10T07:20:05.986Z,8.00
2018-11-10T07:22:34.491Z,8.00
2018-11-10T07:25:03.068Z,8.00
2018-11-10T07:27:31.477Z,8.00
2018-11-10T07:29:59.922Z,8.00
2018-11-10T07:32:28.401Z,8.00
2018-11-10T07:34:56.848Z,8.00
2018-11-10T07:37:25.342Z,8.10
2018-11-10T07:39:53.849Z,8.00
2018-11-10T07:42:22.443Z,8.10
2018-11-10T07:44:50.937Z,8.10
2018-11-10T07:47:19.451Z,8.10
2018-11-10T07:49:47.925Z,8.10
2018-11-10T07:52:16.362Z,8.10
2018-11-10T07:54:44.829Z,8.10
2018-11-10T07:57:13.269Z,8.20
2018-11-10T07:59:41.743Z,8.10
2018-11-10T08:02:10.211Z,8.20
2018-11-10T08:04:38.781Z,8.20
2018-11-10T08:07:07.237Z,8.20
2018-11-10T08:09:35.678Z,8.30
2018-11-10T08:12:04.195Z,8.30
2018-11-10T08:14:32.670Z,8.30
2018-11-10T08:17:01.163Z,8.30
2018-11-10T08:19:29.619Z,8.30
2018-11-10T08:21:58.308Z,8.30
2018-11-10T08:24:26.837Z,8.30
2018-11-10T08:26:55.298Z,8.30
2018-11-10T08:29:23.782Z,8.30
2018-11-10T08:31:52.237Z,8.30
2018-11-10T08:34:20.738Z,8.30
2018-11-10T08:36:49.169Z,8.30
2018-11-10T08:39:17.710Z,8.30
2018-11-10T08:41:46.146Z,8.30
2018-11-10T08:44:14.667Z,8.40
2018-11-10T08:46:43.101Z,8.40
2018-11-10T08:49:11.600Z,8.50
2018-11-10T08:51:40.147Z,8.50
2018-11-10T08:54:08.647Z,8.50
2018-11-10T08:56:37.118Z,8.50
2018-11-10T08:59:05.632Z,8.60
2018-11-10T09:01:34.098Z,8.60
2018-11-10T09:04:02.677Z,8.60
2018-11-10T09:06:32.733Z,8.60
2018-11-10T09:09:01.213Z,8.60
2018-11-10T09:11:29.669Z,8.60
2018-11-10T09:13:58.139Z,8.70
2018-11-10T09:16:26.624Z,8.70
2018-11-10T09:18:55.098Z,8.70
2018-11-10T09:21:23.702Z,8.80
2018-11-10T09:23:52.071Z,8.70
2018-11-10T09:26:20.587Z,8.80
2018-11-10T09:28:49.051Z,8.90
2018-11-10T09:31:17.534Z,8.90
2018-11-10T09:33:46.009Z,9.00
2018-11-10T09:36:14.547Z,9.00
2018-11-10T09:38:42.982Z,9.10
2018-11-10T09:41:11.472Z,9.10
2018-11-10T09:43:39.905Z,9.10
2018-11-10T09:46:08.414Z,9.20
2018-11-10T09:48:36.865Z,9.20
2018-11-10T09:51:05.428Z,9.30
2018-11-10T09:53:33.881Z,9.30
2018-11-10T09:56:02.407Z,9.30
2018-11-10T09:58:30.898Z,9.40
2018-11-10T10:00:59.449Z,9.30
2018-11-10T10:03:27.879Z,9.40
2018-11-10T10:05:56.394Z,9.40
2018-11-10T10:08:24.872Z,9.50
2018-11-10T10:10:53.369Z,9.60
2018-11-10T10:13:21.870Z,9.60
2018-11-10T10:15:50.369Z,9.60
2018-11-10T10:18:18.839Z,9.60
2018-11-10T10:20:47.342Z,9.60
2018-11-10T10:23:16.058Z,9.60
2018-11-10T10:25:44.605Z,9.50
2018-11-10T10:28:13.121Z,9.50
2018-11-10T10:30:41.622Z,9.40
2018-11-10T10:33:10.083Z,9.30
2018-11-10T10:35:38.749Z,9.40
2018-11-10T10:38:07.080Z,9.40
2018-11-10T10:40:35.588Z,9.30
2018-11-10T10:43:04.156Z,9.30
2018-11-10T10:45:32.622Z,9.30
2018-11-10T10:48:01.074Z,9.30
2018-11-10T10:50:29.589Z,9.30
2018-11-10T10:52:58.045Z,9.30
2018-11-10T10:55:26.542Z,9.30
2018-11-10T10:57:55.031Z,9.40
2018-11-10T11:00:28.762Z,9.40
2018-11-10T11:03:02.491Z,9.40
2018-11-10T11:05:36.142Z,9.40
2018-11-10T11:08:04.809Z,9.40
2018-11-10T11:10:34.419Z,9.50
2018-11-10T11:13:03.304Z,9.60
2018-11-10T11:15:32.107Z,9.70
2018-11-10T11:18:00.530Z,9.80
2018-11-10T11:20:28.989Z,9.80
2018-11-10T11:22:57.543Z,9.80
2018-11-10T11:25:26.210Z,9.90
2018-11-10T11:27:55.119Z,9.80
2018-11-10T11:30:23.626Z,9.90
2018-11-10T11:32:52.152Z,9.90
2018-11-10T11:35:20.737Z,10.00
2018-11-10T11:37:49.343Z,10.00
2018-11-10T11:40:17.862Z,10.10
2018-11-10T11:42:46.334Z,10.10
2018-11-10T11:45:16.987Z,10.00
2018-11-10T11:47:45.958Z,10.10
2018-11-10T11:50:15.610Z,10.10
2018-11-10T11:52:44.736Z,10.20
2018-11-10T11:55:13.682Z,10.30
2018-11-10T11:57:42.453Z,10.30
2018-11-10T12:00:12.979Z,10.30
2018-11-10T12:02:42.230Z,10.30
2018-11-10T12:05:12.022Z,10.30
2018-11-10T12:07:40.611Z,10.30
2018-11-10T12:10:10.946Z,10.30
2018-11-10T12:12:39.566Z,10.30
2018-11-10T12:15:08.911Z,10.30
2018-11-10T12:17:37.527Z,10.40
2018-11-10T12:20:07.476Z,10.40
2018-11-10T12:22:37.101Z,10.50
2018-11-10T12:25:06.403Z,10.40
2018-11-10T12:27:34.947Z,10.50
2018-11-10T12:30:03.513Z,10.40
2018-11-10T12:32:36.427Z,10.30
2018-11-10T12:35:06.056Z,10.30
2018-11-10T12:37:34.816Z,10.30
2018-11-10T12:40:03.830Z,10.30
2018-11-10T12:42:32.608Z,10.20
2018-11-10T12:45:01.341Z,10.30
2018-11-10T12:47:30.995Z,10.30
2018-11-10T12:50:01.480Z,10.30
2018-11-10T12:52:30.249Z,10.40
2018-11-10T12:54:59.072Z,10.40
2018-11-10T12:57:27.943Z,10.40
2018-11-10T12:59:56.871Z,10.30
2018-11-10T13:02:25.956Z,10.30
2018-11-10T13:04:55.994Z,10.40
2018-11-10T13:07:24.810Z,10.40
2018-11-10T13:09:53.812Z,10.50
2018-11-10T13:12:22.674Z,10.50
2018-11-10T13:14:52.164Z,10.50
2018-11-10T13:17:20.837Z,10.60
2018-11-10T13:19:53.977Z,10.70
2018-11-10T13:22:22.499Z,10.80
2018-11-10T13:24:51.291Z,10.80
2018-11-10T13:27:22.611Z,10.70
2018-11-10T13:29:51.243Z,10.70
2018-11-10T13:32:19.740Z,10.70
2018-11-10T13:34:48.268Z,10.60
2018-11-10T13:37:16.807Z,10.60
2018-11-10T13:39:45.302Z,10.70
2018-11-10T13:42:13.785Z,10.60
2018-11-10T13:44:42.254Z,10.60
2018-11-10T13:47:10.749Z,10.70
2018-11-10T13:49:39.282Z,10.70
2018-11-10T13:52:08.063Z,10.60
2018-11-10T13:54:36.303Z,10.60
2018-11-10T13:57:05.359Z,10.60
2018-11-10T13:59:34.193Z,10.60
2018-11-10T14:02:02.718Z,10.60
2018-11-10T14:04:31.226Z,10.50
2018-11-10T14:06:59.749Z,10.40
2018-11-10T14:09:28.200Z,10.40
2018-11-10T14:11:56.730Z,10.30
2018-11-10T14:14:25.230Z,10.30
2018-11-10T14:16:53.740Z,10.20
2018-11-10T14:19:22.224Z,10.10
2018-11-10T14:21:50.771Z,10.10
2018-11-10T14:24:22.044Z,10.10
2018-11-10T14:26:50.573Z,10.10
2018-11-10T14:29:19.050Z,10.10
2018-11-10T14:31:47.719Z,10.00
2018-11-10T14:34:16.213Z,10.10
2018-11-10T14:36:44.799Z,10.10
2018-11-10T14:39:13.294Z,10.10
2018-11-10T14:41:41.930Z,10.10
2018-11-10T14:44:10.667Z,10.10
2018-11-10T14:46:39.234Z,10.10
2018-11-10T14:49:08.977Z,10.00
2018-11-10T14:51:37.467Z,10.00
2018-11-10T14:54:05.973Z,9.90
2018-11-10T14:56:34.904Z,9.80
2018-11-10T14:59:03.933Z,9.80
2018-11-10T15:01:32.748Z,9.80
2018-11-10T15:04:01.354Z,9.80
2018-11-10T15:06:29.874Z,9.70
2018-11-10T15:08:58.422Z,9.70
2018-11-10T15:11:27.026Z,9.60
2018-11-10T15:13:55.531Z,9.60
2018-11-10T15:16:24.047Z,9.50
2018-11-10T15:18:52.594Z,9.50
2018-11-10T15:21:21.049Z,9.40
2018-11-10T15:23:49.522Z,9.30
2018-11-10T15:26:18.106Z,9.30
2018-11-10T15:28:46.790Z,9.30
2018-11-10T15:31:15.265Z,9.20
2018-11-10T15:33:43.783Z,9.20
2018-11-10T15:36:12.370Z,9.10
2018-11-10T15:38:40.943Z,9.10
2018-11-10T15:41:09.468Z,9.00
2018-11-10T15:43:37.958Z,8.90
2018-11-10T15:46:09.261Z,8.90
2018-11-10T15:48:37.733Z,8.90
2018-11-10T15:51:06.258Z,8.90
2018-11-10T15:53:34.738Z,8.80
2018-11-10T15:56:03.282Z,8.80
2018-11-10T15:58:31.775Z,8.70
2018-11-10T16:01:00.227Z,8.70
2018-11-10T16:03:28.775Z,8.60
2018-11-10T16:05:57.306Z,8.60
2018-11-10T16:08:26.593Z,8.60
2018-11-10T16:10:55.148Z,8.60
2018-11-10T16:13:23.633Z,8.50
2018-11-10T16:15:52.202Z,8.50
2018-11-10T16:18:20.757Z,8.50
2018-11-10T16:20:49.220Z,8.40
2018-11-10T16:23:17.772Z,8.40
2018-11-10T16:25:46.649Z,8.40
2018-11-10T16:28:15.158Z,8.40
2018-11-10T16:30:43.634Z,8.40
2018-11-10T16:33:12.235Z,8.40
2018-11-10T16:35:40.678Z,8.40
2018-11-10T16:38:09.307Z,8.40
2018-11-10T16:40:37.904Z,8.40
2018-11-10T16:43:06.404Z,8.40
2018-11-10T16:45:34.914Z,8.40
2018-11-10T16:48:03.400Z,8.30
2018-11-10T16:50:31.902Z,8.30
2018-11-10T16:53:00.426Z,8.30
2018-11-10T16:55:28.964Z,8.30
2018-11-10T16:57:57.377Z,8.30
2018-11-10T17:00:25.863Z,8.30
2018-11-10T17:02:57.834Z,8.30
2018-11-10T17:05:26.331Z,8.30
2018-11-10T17:07:54.797Z,8.30
2018-11-10T17:10:23.501Z,8.30
2018-11-10T17:12:51.965Z,9.30
2018-11-10T17:15:20.974Z,8.30
2018-11-10T17:17:49.409Z,8.20
2018-11-10T17:20:17.927Z,8.20
2018-11-10T17:22:46.592Z,8.10
2018-11-10T17:25:15.641Z,8.10
2018-11-10T17:27:44.261Z,8.10
2018-11-10T17:30:19.002Z,8.00
2018-11-10T17:32:47.699Z,8.00
2018-11-10T17:35:16.374Z,8.00
2018-11-10T17:37:45.177Z,8.00
2018-11-10T17:40:14.501Z,8.00
2018-11-10T17:42:46.603Z,8.00
2018-11-10T17:45:17.202Z,8.00
2018-11-10T17:47:45.745Z,8.00
2018-11-10T17:50:15.598Z,8.00
2018-11-10T17:52:44.215Z,8.00
2018-11-10T17:55:13.767Z,8.00
2018-11-10T17:57:42.890Z,8.00
2018-11-10T18:00:11.491Z,8.10
2018-11-10T18:02:40.001Z,8.10
2018-11-10T18:05:09.954Z,8.10
2018-11-10T18:07:40.318Z,8.00
2018-11-10T18:10:11.814Z,8.00
2018-11-10T18:12:40.561Z,8.00
2018-11-10T18:15:09.808Z,8.00
2018-11-10T18:17:38.852Z,8.00
2018-11-10T18:20:08.183Z,8.00
2018-11-10T18:22:37.751Z,7.90
2018-11-10T18:25:06.663Z,8.00
2018-11-10T18:27:35.413Z,8.00
2018-11-10T18:30:04.513Z,8.00
2018-11-10T18:32:33.113Z,8.00
2018-11-10T18:35:01.703Z,8.00
2018-11-10T18:37:30.418Z,8.00
2018-11-10T18:39:59.128Z,7.90
2018-11-10T18:42:27.859Z,7.90
2018-11-10T18:44:56.352Z,7.90
2018-11-10T18:47:25.191Z,7.90
2018-11-10T18:49:53.843Z,7.80
2018-11-10T18:52:22.371Z,7.80
2018-11-10T18:54:50.927Z,7.80
2018-11-10T18:57:19.591Z,7.80
2018-11-10T18:59:48.088Z,7.80
2018-11-10T19:02:16.638Z,7.80
2018-11-10T19:04:45.453Z,7.80
2018-11-10T19:07:14.224Z,7.80
2018-11-10T19:09:42.905Z,7.80
2018-11-10T19:12:11.803Z,7.80
2018-11-10T19:14:40.522Z,7.80
2018-11-10T19:17:09.210Z,7.80
2018-11-10T19:19:37.870Z,7.80
2018-11-10T19:22:06.618Z,7.70
2018-11-10T19:24:35.179Z,7.80
2018-11-10T19:27:03.834Z,7.70
2018-11-10T19:29:32.335Z,7.80
2018-11-10T19:32:01.291Z,7.80
2018-11-10T19:34:30.191Z,7.70
2018-11-10T19:36:58.774Z,7.70
2018-11-10T19:39:27.324Z,7.70
2018-11-10T19:41:56.135Z,7.70
2018-11-10T19:44:24.916Z,7.70
2018-11-10T19:46:53.590Z,7.70
2018-11-10T19:49:22.424Z,7.70
2018-11-10T19:51:51.580Z,7.70
2018-11-10T19:54:19.853Z,7.70
2018-11-10T19:56:48.499Z,7.70
2018-11-10T19:59:17.028Z,7.70
2018-11-10T20:01:45.720Z,7.60
2018-11-10T20:04:14.654Z,7.60
2018-11-10T20:06:43.229Z,7.60
2018-11-10T20:09:11.975Z,7.60
2018-11-10T20:11:40.658Z,7.60
2018-11-10T20:14:09.485Z,7.60
2018-11-10T20:16:38.254Z,7.60
2018-11-10T20:19:07.026Z,7.50
2018-11-10T20:21:35.627Z,7.50
2018-11-10T20:24:04.173Z,7.50
2018-11-10T20:26:32.784Z,7.50
2018-11-10T20:29:01.344Z,7.60
2018-11-10T20:31:30.010Z,7.50
2018-11-10T20:33:58.521Z,7.50
2018-11-10T20:36:27.076Z,7.50
2018-11-10T20:38:55.735Z,7.50
2018-11-10T20:41:24.377Z,7.50
2018-11-10T20:43:52.867Z,7.50
2018-11-10T20:46:21.584Z,7.50
2018-11-10T20:48:50.147Z,7.50
2018-11-10T20:51:18.895Z,7.50
2018-11-10T20:53:47.318Z,7.50
2018-11-10T20:56:16.109Z,7.50
2018-11-10T20:58:44.653Z,7.50
2018-11-10T21:01:13.367Z,7.40
2018-11-10T21:03:42.198Z,7.40
2018-11-10T21:06:10.955Z,7.40
2018-11-10T21:08:39.644Z,7.40
2018-11-10T21:11:08.415Z,7.40
2018-11-10T21:13:37.000Z,7.40
2018-11-10T21:16:05.991Z,7.40
2018-11-10T21:18:34.970Z,7.40
2018-11-10T21:21:04.327Z,7.40
2018-11-10T21:23:33.285Z,7.40
2018-11-10T21:26:01.929Z,7.40
2018-11-10T21:28:30.747Z,7.40
2018-11-10T21:30:59.530Z,7.40
2018-11-10T21:33:28.290Z,7.40
2018-11-10T21:35:58.112Z,7.40
2018-11-10T21:38:26.959Z,7.40
2018-11-10T21:40:55.492Z,7.40
2018-11-10T21:43:24.110Z,7.40
2018-11-10T21:45:53.092Z,7.40
2018-11-10T21:48:21.987Z,7.40
2018-11-10T21:50:50.671Z,7.30
2018-11-10T21:53:19.207Z,7.30
2018-11-10T21:55:47.793Z,7.30
2018-11-10T21:58:16.681Z,7.30
2018-11-10T22:00:45.543Z,7.30
2018-11-10T22:03:14.183Z,7.30
2018-11-10T22:05:42.859Z,7.30
2018-11-10T22:08:11.795Z,7.30
2018-11-10T22:10:40.756Z,7.30
2018-11-10T22:13:09.467Z,7.30
2018-11-10T22:15:38.116Z,7.30
2018-11-10T22:18:06.884Z,7.20
2018-11-10T22:20:35.594Z,7.20
2018-11-10T22:23:04.524Z,7.20
2018-11-10T22:25:33.195Z,7.20
2018-11-10T22:28:01.918Z,7.20
2018-11-10T22:30:30.714Z,7.20
2018-11-10T22:32:59.397Z,7.20
2018-11-10T22:35:28.073Z,7.20
2018-11-10T22:37:56.566Z,7.20
2018-11-10T22:40:25.188Z,7.10
2018-11-10T22:42:53.641Z,7.10
2018-11-10T22:45:22.584Z,7.10
2018-11-10T22:47:51.720Z,7.10
2018-11-10T22:50:22.558Z,7.10
2018-11-10T22:52:51.236Z,7.10
2018-11-10T22:55:19.850Z,7.10
2018-11-10T22:57:48.382Z,7.10
2018-11-10T23:00:24.897Z,7.10
2018-11-10T23:02:55.751Z,7.00
2018-11-10T23:05:24.915Z,7.10
2018-11-10T23:07:53.549Z,7.00
2018-11-10T23:10:22.392Z,7.10
2018-11-10T23:12:52.010Z,7.00
2018-11-10T23:15:20.676Z,7.00
2018-11-10T23:17:49.375Z,7.00
2018-11-10T23:20:18.841Z,7.10
2018-11-10T23:22:47.579Z,7.10
2018-11-10T23:25:17.396Z,7.00
2018-11-10T23:27:46.027Z,7.10
2018-11-10T23:30:19.952Z,7.10
2018-11-10T23:32:48.612Z,7.10
2018-11-10T23:35:17.316Z,7.00
2018-11-10T23:37:45.944Z,7.10
2018-11-10T23:40:15.739Z,7.00
2018-11-10T23:42:44.722Z,7.10
2018-11-10T23:45:14.254Z,7.10
2018-11-10T23:47:42.926Z,7.10
2018-11-10T23:50:13.105Z,7.10
2018-11-10T23:52:41.963Z,7.10
2018-11-10T23:55:11.735Z,7.10
2018-11-10T23:57:40.386Z,7.10
